createdAt,value
2018-09-25T00:02:20.614Z,8.40
2018-09-25T00:04:54.343Z,8.40
2018-09-25T00:07:28.005Z,8.30
2018-09-25T00:10:01.623Z,8.20
2018-09-25T00:12:35.199Z,8.20
2018-09-25T00:15:08.940Z,8.00
2018-09-25T00:17:42.555Z,7.80
2018-09-25T00:20:16.275Z,7.70
2018-09-25T00:22:49.980Z,7.60
2018-09-25T00:25:23.678Z,7.60
2018-09-25T00:27:57.292Z,7.60
2018-09-25T00:30:30.840Z,7.50
2018-09-25T00:33:04.631Z,7.50
2018-09-25T00:35:38.224Z,7.60
2018-09-25T00:38:11.879Z,7.50
2018-09-25T00:40:45.404Z,7.50
2018-09-25T00:43:19.090Z,7.50
2018-09-25T00:45:52.708Z,7.50
2018-09-25T00:48:26.316Z,7.50
2018-09-25T00:51:00.933Z,7.50
2018-09-25T00:53:35.476Z,7.50
2018-09-25T00:56:09.508Z,7.50
2018-09-25T00:58:43.115Z,7.50
2018-09-25T01:01:16.901Z,7.40
2018-09-25T01:03:50.592Z,7.40
2018-09-25T01:06:24.204Z,7.40
2018-09-25T01:08:57.827Z,7.50
2018-09-25T01:11:31.463Z,7.50
2018-09-25T01:14:05.136Z,7.50
2018-09-25T01:16:38.759Z,7.40
2018-09-25T01:19:12.542Z,7.50
2018-09-25T01:21:46.109Z,7.50
2018-09-25T01:24:19.828Z,7.40
2018-09-25T01:26:53.634Z,7.40
2018-09-25T01:29:27.359Z,7.40
2018-09-25T01:32:01.175Z,7.30
2018-09-25T01:34:34.952Z,7.30
2018-09-25T01:37:08.715Z,7.30
2018-09-25T01:39:42.477Z,7.30
2018-09-25T01:42:16.106Z,7.30
2018-09-25T01:44:49.756Z,7.30
2018-09-25T01:47:23.437Z,7.20
2018-09-25T01:49:56.963Z,7.20
2018-09-25T01:52:30.458Z,7.20
2018-09-25T01:55:04.900Z,7.20
2018-09-25T01:57:38.650Z,7.20
2018-09-25T02:00:12.481Z,7.20
2018-09-25T02:02:46.311Z,7.20
2018-09-25T02:05:20.178Z,7.20
2018-09-25T02:07:53.768Z,7.20
2018-09-25T02:10:27.695Z,7.20
2018-09-25T02:13:01.284Z,7.20
2018-09-25T02:15:34.957Z,7.10
2018-09-25T02:18:08.780Z,7.10
2018-09-25T02:20:42.408Z,7.10
2018-09-25T02:23:16.099Z,7.00
2018-09-25T02:25:49.871Z,7.00
2018-09-25T02:28:23.628Z,7.00
2018-09-25T02:30:57.393Z,7.00
2018-09-25T02:33:30.998Z,7.00
2018-09-25T02:36:04.644Z,7.00
2018-09-25T02:38:38.333Z,7.00
2018-09-25T02:41:12.101Z,7.00
2018-09-25T02:43:45.988Z,7.00
2018-09-25T02:46:20.812Z,7.00
2018-09-25T02:48:54.492Z,6.90
2018-09-25T02:51:30.270Z,6.90
2018-09-25T02:54:03.925Z,6.90
2018-09-25T02:56:37.709Z,6.90
2018-09-25T02:59:11.581Z,6.90
2018-09-25T03:01:45.277Z,6.90
2018-09-25T03:04:18.906Z,6.90
2018-09-25T03:06:52.618Z,6.90
2018-09-25T03:09:27.427Z,6.90
2018-09-25T03:12:01.014Z,6.80
2018-09-25T03:14:35.676Z,6.80
2018-09-25T03:17:09.882Z,6.70
2018-09-25T03:19:43.490Z,6.70
2018-09-25T03:22:17.360Z,6.70
2018-09-25T03:24:50.993Z,6.70
2018-09-25T03:27:24.637Z,6.70
2018-09-25T03:29:58.214Z,6.60
2018-09-25T03:32:32.060Z,6.60
2018-09-25T03:35:05.789Z,6.60
2018-09-25T03:37:39.403Z,6.60
2018-09-25T03:40:13.180Z,6.60
2018-09-25T03:42:47.249Z,6.60
2018-09-25T03:45:20.966Z,6.50
2018-09-25T03:47:54.775Z,6.50
2018-09-25T03:50:28.515Z,6.50
2018-09-25T03:53:02.165Z,6.50
2018-09-25T03:55:36.910Z,6.40
2018-09-25T03:58:10.571Z,6.40
2018-09-25T04:00:44.314Z,6.40
2018-09-25T04:03:18.048Z,6.40
2018-09-25T04:05:52.771Z,6.30
2018-09-25T04:08:26.631Z,6.30
2018-09-25T04:11:00.367Z,6.20
2018-09-25T04:13:34.065Z,6.10
2018-09-25T04:16:07.705Z,6.00
2018-09-25T04:18:41.358Z,5.90
2018-09-25T04:21:15.063Z,5.80
2018-09-25T04:23:48.812Z,5.70
2018-09-25T04:26:22.717Z,5.70
2018-09-25T04:28:57.025Z,5.70
2018-09-25T04:31:30.989Z,5.70
2018-09-25T04:34:04.573Z,5.70
2018-09-25T04:36:40.894Z,5.70
2018-09-25T04:39:14.771Z,5.80
2018-09-25T04:41:48.669Z,5.80
2018-09-25T04:44:22.495Z,5.80
2018-09-25T04:46:56.207Z,5.80
2018-09-25T04:49:30.070Z,5.80
2018-09-25T04:52:03.624Z,5.80
2018-09-25T04:54:37.355Z,5.80
2018-09-25T04:57:11.178Z,5.80
2018-09-25T04:59:44.937Z,5.80
2018-09-25T05:02:18.616Z,5.80
2018-09-25T05:04:52.367Z,5.90
2018-09-25T05:07:26.286Z,5.90
2018-09-25T05:10:00.152Z,5.90
2018-09-25T05:12:33.855Z,5.90
2018-09-25T05:15:07.613Z,5.90
2018-09-25T05:17:41.649Z,6.00
2018-09-25T05:20:16.032Z,6.00
2018-09-25T05:22:50.767Z,6.10
2018-09-25T05:25:24.646Z,6.10
2018-09-25T05:27:58.949Z,6.10
2018-09-25T05:30:32.710Z,6.10
2018-09-25T05:33:06.255Z,6.00
2018-09-25T05:35:40.084Z,5.90
2018-09-25T05:38:13.987Z,5.90
2018-09-25T05:40:47.669Z,5.90
2018-09-25T05:43:21.302Z,5.90
2018-09-25T05:45:55.055Z,5.90
2018-09-25T05:48:29.339Z,5.90
2018-09-25T05:51:02.849Z,5.90
2018-09-25T05:53:36.570Z,6.00
2018-09-25T05:56:10.373Z,6.00
2018-09-25T05:58:43.987Z,6.10
2018-09-25T06:01:17.765Z,6.10
2018-09-25T06:03:51.398Z,6.20
2018-09-25T06:06:25.254Z,6.20
2018-09-25T06:08:58.873Z,6.20
2018-09-25T06:11:32.736Z,6.20
2018-09-25T06:14:06.230Z,6.10
2018-09-25T06:16:39.896Z,5.90
2018-09-25T06:19:13.610Z,5.90
2018-09-25T06:21:47.453Z,5.90
2018-09-25T06:24:21.304Z,5.90
2018-09-25T06:26:54.941Z,5.90
2018-09-25T06:29:28.658Z,6.00
2018-09-25T06:32:02.301Z,6.10
2018-09-25T06:34:36.115Z,6.10
2018-09-25T06:37:09.833Z,6.20
2018-09-25T06:39:43.484Z,6.20
2018-09-25T06:42:17.206Z,6.30
2018-09-25T06:44:50.738Z,6.40
2018-09-25T06:47:25.139Z,6.40
2018-09-25T06:49:58.644Z,6.50
2018-09-25T06:52:32.517Z,6.60
2018-09-25T06:55:06.343Z,6.70
2018-09-25T06:57:39.828Z,6.70
2018-09-25T07:00:13.624Z,6.80
2018-09-25T07:02:47.688Z,7.00
2018-09-25T07:05:21.332Z,7.10
2018-09-25T07:07:55.059Z,7.20
2018-09-25T07:10:29.043Z,7.30
2018-09-25T07:13:02.389Z,7.50
2018-09-25T07:15:35.995Z,7.50
2018-09-25T07:18:16.157Z,7.70
2018-09-25T07:20:49.837Z,7.80
2018-09-25T07:23:23.607Z,7.90
2018-09-25T07:25:57.260Z,8.00
2018-09-25T07:28:31.035Z,8.10
2018-09-25T07:31:05.026Z,8.20
2018-09-25T07:33:38.580Z,8.20
2018-09-25T07:36:12.832Z,8.30
2018-09-25T07:38:46.557Z,8.40
2018-09-25T07:41:20.735Z,8.50
2018-09-25T07:43:54.664Z,8.60
2018-09-25T07:46:28.404Z,8.70
2018-09-25T07:49:02.099Z,8.80
2018-09-25T07:51:35.932Z,8.80
2018-09-25T07:54:09.804Z,8.90
2018-09-25T07:56:43.645Z,9.00
2018-09-25T07:59:17.328Z,9.10
2018-09-25T08:01:51.054Z,9.30
2018-09-25T08:04:24.695Z,9.30
2018-09-25T08:06:58.456Z,9.40
2018-09-25T08:09:32.181Z,9.50
2018-09-25T08:12:06.544Z,9.70
2018-09-25T08:14:40.292Z,9.80
2018-09-25T08:17:13.928Z,9.80
2018-09-25T08:19:47.638Z,9.90
2018-09-25T08:22:21.682Z,10.00
2018-09-25T08:24:55.392Z,10.10
2018-09-25T08:27:29.106Z,10.20
2018-09-25T08:30:02.947Z,10.20
2018-09-25T08:32:36.804Z,10.30
2018-09-25T08:35:11.511Z,10.30
2018-09-25T08:37:45.313Z,10.40
2018-09-25T08:40:19.012Z,10.60
2018-09-25T08:42:52.569Z,10.70
2018-09-25T08:45:26.313Z,10.90
2018-09-25T08:47:59.985Z,11.10
2018-09-25T08:50:33.740Z,11.30
2018-09-25T08:53:07.365Z,11.40
2018-09-25T08:55:41.827Z,11.50
2018-09-25T08:58:15.408Z,11.70
2018-09-25T09:00:49.186Z,11.80
2018-09-25T09:03:22.857Z,11.80
2018-09-25T09:05:56.417Z,11.90
2018-09-25T09:08:30.220Z,12.00
2018-09-25T09:11:03.888Z,12.00
2018-09-25T09:13:37.635Z,12.10
2018-09-25T09:16:11.270Z,12.20
2018-09-25T09:18:44.920Z,12.30
2018-09-25T09:21:18.702Z,12.50
2018-09-25T09:23:52.552Z,12.60
2018-09-25T09:26:26.548Z,12.70
2018-09-25T09:29:00.324Z,12.80
2018-09-25T09:31:34.082Z,13.00
2018-09-25T09:34:07.636Z,13.10
2018-09-25T09:36:41.440Z,13.30
2018-09-25T09:39:15.255Z,13.30
2018-09-25T09:41:49.067Z,13.40
2018-09-25T09:44:22.590Z,13.50
2018-09-25T09:46:56.332Z,13.70
2018-09-25T09:49:30.283Z,13.80
2018-09-25T09:52:04.014Z,13.90
2018-09-25T09:54:37.860Z,14.00
2018-09-25T09:57:11.615Z,14.10
2018-09-25T09:59:45.309Z,14.30
2018-09-25T10:02:19.068Z,14.50
2018-09-25T10:04:52.725Z,14.70
2018-09-25T10:07:26.412Z,14.80
2018-09-25T10:09:59.985Z,14.90
2018-09-25T10:12:33.821Z,15.00
2018-09-25T10:15:07.373Z,15.10
2018-09-25T10:17:41.036Z,15.20
2018-09-25T10:20:14.805Z,15.20
2018-09-25T10:22:48.419Z,15.30
2018-09-25T10:25:22.187Z,15.50
2018-09-25T10:27:55.900Z,15.70
2018-09-25T10:30:29.697Z,15.80
2018-09-25T10:33:03.453Z,15.80
2018-09-25T10:35:37.143Z,15.90
2018-09-25T10:38:10.838Z,16.00
2018-09-25T10:40:44.475Z,16.20
2018-09-25T10:43:18.262Z,16.30
2018-09-25T10:45:52.092Z,16.30
2018-09-25T10:48:25.657Z,16.40
2018-09-25T10:50:59.457Z,16.50
2018-09-25T10:53:33.171Z,16.50
2018-09-25T10:56:06.775Z,16.70
2018-09-25T10:58:40.461Z,16.90
2018-09-25T11:01:14.214Z,17.20
2018-09-25T11:03:47.945Z,17.50
2018-09-25T11:06:21.956Z,17.80
2018-09-25T11:08:55.648Z,18.00
2018-09-25T11:11:29.212Z,18.20
2018-09-25T11:14:03.001Z,18.20
2018-09-25T11:16:36.877Z,18.20
2018-09-25T11:19:10.730Z,18.30
2018-09-25T11:21:44.482Z,18.40
2018-09-25T11:24:18.260Z,20.10
2018-09-25T11:26:52.789Z,23.80
2018-09-25T11:29:27.166Z,26.70
2018-09-25T11:32:01.089Z,28.80
2018-09-25T11:34:34.792Z,30.30
2018-09-25T11:37:15.494Z,31.00
2018-09-25T11:39:49.207Z,31.60
2018-09-25T11:42:22.947Z,32.00
2018-09-25T11:44:56.543Z,31.80
2018-09-25T11:47:30.184Z,32.10
2018-09-25T11:50:03.895Z,32.50
2018-09-25T11:52:38.476Z,32.20
2018-09-25T11:55:12.177Z,30.40
2018-09-25T11:57:45.771Z,30.00
2018-09-25T12:00:19.340Z,30.50
2018-09-25T12:02:54.077Z,31.10
2018-09-25T12:05:27.873Z,32.00
2018-09-25T12:08:01.619Z,32.70
2018-09-25T12:10:35.201Z,32.90
2018-09-25T12:13:08.883Z,31.90
2018-09-25T12:15:42.621Z,31.20
2018-09-25T12:18:16.438Z,31.80
2018-09-25T12:20:50.293Z,33.20
2018-09-25T12:23:25.046Z,34.10
2018-09-25T12:25:58.687Z,34.60
2018-09-25T12:28:32.432Z,34.50
2018-09-25T12:31:06.128Z,34.60
2018-09-25T12:33:40.007Z,33.60
2018-09-25T12:36:13.682Z,30.40
2018-09-25T12:38:47.419Z,27.30
2018-09-25T12:41:21.223Z,23.80
2018-09-25T12:43:54.993Z,21.30
2018-09-25T12:46:28.741Z,19.40
2018-09-25T12:49:02.328Z,18.30
2018-09-25T12:51:35.980Z,19.60
2018-09-25T12:54:09.707Z,20.40
2018-09-25T12:56:43.437Z,23.30
2018-09-25T12:59:17.128Z,24.80
2018-09-25T13:01:50.950Z,27.40
2018-09-25T13:04:24.838Z,29.60
2018-09-25T13:06:58.559Z,31.10
2018-09-25T13:09:32.126Z,31.50
2018-09-25T13:12:05.763Z,30.00
2018-09-25T13:14:39.376Z,27.70
2018-09-25T13:17:13.014Z,25.30
2018-09-25T13:19:46.746Z,23.60
2018-09-25T13:22:20.245Z,22.60
2018-09-25T13:24:54.010Z,21.70
2018-09-25T13:27:28.117Z,21.10
2018-09-25T13:30:01.911Z,20.60
2018-09-25T13:32:35.696Z,20.10
2018-09-25T13:35:09.564Z,19.60
2018-09-25T13:37:43.155Z,19.30
2018-09-25T13:40:16.877Z,19.50
2018-09-25T13:42:50.642Z,19.70
2018-09-25T13:45:24.320Z,19.60
2018-09-25T13:47:57.950Z,19.20
2018-09-25T13:50:31.847Z,18.90
2018-09-25T13:53:05.621Z,18.90
2018-09-25T13:55:39.464Z,19.00
2018-09-25T13:58:12.980Z,19.10
2018-09-25T14:00:46.718Z,18.90
2018-09-25T14:03:20.399Z,18.30
2018-09-25T14:05:54.127Z,17.90
2018-09-25T14:08:27.866Z,17.70
2018-09-25T14:11:01.548Z,17.50
2018-09-25T14:13:35.257Z,17.60
2018-09-25T14:16:09.199Z,17.50
2018-09-25T14:18:42.898Z,17.30
2018-09-25T14:21:16.564Z,17.20
2018-09-25T14:23:50.181Z,17.10
2018-09-25T14:26:23.951Z,17.20
2018-09-25T14:28:57.673Z,17.30
2018-09-25T14:31:31.492Z,17.40
2018-09-25T14:34:05.020Z,17.60
2018-09-25T14:36:38.690Z,17.90
2018-09-25T14:39:19.634Z,18.10
2018-09-25T14:41:53.399Z,18.20
2018-09-25T14:44:27.063Z,18.20
2018-09-25T14:47:00.718Z,18.10
2018-09-25T14:49:34.470Z,18.00
2018-09-25T14:52:08.395Z,17.90
2018-09-25T14:54:42.074Z,18.30
2018-09-25T14:57:15.928Z,18.80
2018-09-25T14:59:49.678Z,19.30
2018-09-25T15:02:23.354Z,19.60
2018-09-25T15:04:57.008Z,20.20
2018-09-25T15:07:30.847Z,20.20
2018-09-25T15:10:04.514Z,20.20
2018-09-25T15:12:38.382Z,20.80
2018-09-25T15:15:12.193Z,22.30
2018-09-25T15:17:45.817Z,23.60
2018-09-25T15:20:19.664Z,23.70
2018-09-25T15:22:53.388Z,22.80
2018-09-25T15:25:26.929Z,21.60
2018-09-25T15:28:00.577Z,20.50
2018-09-25T15:30:34.370Z,19.70
2018-09-25T15:33:08.177Z,19.60
2018-09-25T15:35:42.115Z,19.80
2018-09-25T15:38:15.856Z,19.50
2018-09-25T15:40:49.596Z,19.20
2018-09-25T15:43:23.267Z,18.80
2018-09-25T15:45:57.196Z,18.50
2018-09-25T15:48:30.833Z,18.30
2018-09-25T15:51:04.519Z,18.10
2018-09-25T15:53:39.018Z,17.80
2018-09-25T15:56:12.799Z,17.60
2018-09-25T15:58:46.549Z,17.50
2018-09-25T16:01:20.436Z,17.40
2018-09-25T16:03:55.004Z,17.40
2018-09-25T16:06:28.560Z,17.40
2018-09-25T16:09:02.393Z,17.30
2018-09-25T16:11:36.131Z,17.10
2018-09-25T16:14:09.868Z,17.00
2018-09-25T16:16:43.516Z,16.80
2018-09-25T16:19:17.309Z,16.70
2018-09-25T16:21:50.909Z,16.50
2018-09-25T16:24:24.523Z,16.40
2018-09-25T16:26:58.283Z,16.30
2018-09-25T16:29:32.171Z,16.10
2018-09-25T16:32:05.945Z,15.90
2018-09-25T16:34:40.299Z,15.70
2018-09-25T16:37:13.971Z,15.50
2018-09-25T16:39:47.676Z,15.40
2018-09-25T16:42:21.543Z,15.20
2018-09-25T16:44:55.375Z,15.10
2018-09-25T16:47:29.201Z,14.90
2018-09-25T16:50:05.795Z,14.80
2018-09-25T16:52:39.637Z,14.60
2018-09-25T16:55:13.382Z,14.50
2018-09-25T16:57:47.184Z,14.30
2018-09-25T17:00:20.789Z,14.20
2018-09-25T17:02:54.590Z,14.00
2018-09-25T17:05:28.377Z,13.90
2018-09-25T17:08:02.260Z,13.80
2018-09-25T17:10:35.876Z,13.70
2018-09-25T17:16:14.071Z,13.50
2018-09-25T17:18:47.814Z,13.40
2018-09-25T17:21:21.608Z,13.30
2018-09-25T17:23:55.391Z,13.20
2018-09-25T17:26:29.129Z,13.10
2018-09-25T17:29:02.831Z,13.00
2018-09-25T17:31:36.617Z,13.00
2018-09-25T17:34:10.295Z,12.90
2018-09-25T17:36:44.176Z,12.80
2018-09-25T17:39:17.827Z,12.80
2018-09-25T17:41:51.537Z,12.70
2018-09-25T17:44:25.158Z,12.70
2018-09-25T17:46:58.960Z,12.60
2018-09-25T17:49:32.703Z,12.50
2018-09-25T17:52:06.568Z,12.50
2018-09-25T17:54:40.276Z,12.40
2018-09-25T17:57:14.054Z,12.40
2018-09-25T17:59:47.607Z,12.40
2018-09-25T18:02:21.274Z,12.40
2018-09-25T18:04:55.025Z,12.40
2018-09-25T18:07:28.845Z,12.30
2018-09-25T18:10:02.464Z,12.30
2018-09-25T18:12:36.100Z,12.30
2018-09-25T18:15:10.230Z,12.20
2018-09-25T18:17:43.845Z,12.20
2018-09-25T18:20:17.738Z,12.20
2018-09-25T18:22:51.543Z,12.10
2018-09-25T18:25:25.231Z,12.10
2018-09-25T18:27:59.583Z,12.10
2018-09-25T18:30:33.573Z,12.10
2018-09-25T18:33:07.386Z,12.00
2018-09-25T18:35:41.176Z,12.00
2018-09-25T18:38:15.700Z,12.00
2018-09-25T18:40:49.604Z,11.90
2018-09-25T18:43:23.394Z,11.90
2018-09-25T18:45:57.156Z,11.80
2018-09-25T18:48:30.935Z,11.80
2018-09-25T18:51:04.705Z,11.80
2018-09-25T18:53:38.530Z,11.70
2018-09-25T18:56:12.213Z,11.70
2018-09-25T18:58:46.145Z,11.70
2018-09-25T19:01:20.058Z,11.60
2018-09-25T19:03:53.880Z,11.60
2018-09-25T19:06:27.483Z,11.60
2018-09-25T19:09:01.366Z,11.60
2018-09-25T19:11:35.047Z,11.50
2018-09-25T19:14:08.672Z,11.50
2018-09-25T19:16:42.719Z,11.40
2018-09-25T19:19:17.439Z,11.30
2018-09-25T19:21:52.599Z,11.30
2018-09-25T19:24:27.827Z,11.20
2018-09-25T19:27:03.267Z,11.20
2018-09-25T19:29:37.738Z,11.10
2018-09-25T19:32:11.694Z,11.10
2018-09-25T19:34:45.473Z,11.00
2018-09-25T19:37:19.218Z,11.00
2018-09-25T19:39:52.969Z,11.00
2018-09-25T19:42:27.945Z,11.00
2018-09-25T19:45:01.761Z,11.00
2018-09-25T19:47:35.400Z,11.00
2018-09-25T19:50:10.235Z,11.00
2018-09-25T19:52:43.921Z,10.90
2018-09-25T19:55:17.833Z,10.80
2018-09-25T19:57:51.688Z,10.80
2018-09-25T20:00:25.424Z,10.80
2018-09-25T20:02:59.193Z,10.70
2018-09-25T20:05:33.144Z,10.70
2018-09-25T20:08:06.959Z,10.70
2018-09-25T20:10:40.741Z,10.60
2018-09-25T20:13:14.701Z,10.60
2018-09-25T20:15:48.422Z,10.50
2018-09-25T20:18:22.223Z,10.50
2018-09-25T20:20:56.297Z,10.40
2018-09-25T20:23:30.100Z,10.40
2018-09-25T20:26:03.867Z,10.40
2018-09-25T20:28:37.803Z,10.30
2018-09-25T20:31:11.652Z,10.30
2018-09-25T20:33:45.952Z,10.30
2018-09-25T20:36:19.563Z,10.20
2018-09-25T20:38:53.401Z,10.20
2018-09-25T20:41:27.173Z,10.20
2018-09-25T20:44:01.097Z,10.10
2018-09-25T20:46:38.597Z,10.10
2018-09-25T20:49:12.505Z,10.10
2018-09-25T20:51:46.365Z,10.00
2018-09-25T20:54:20.321Z,9.90
2018-09-25T20:56:53.930Z,9.90
2018-09-25T20:59:27.945Z,9.70
2018-09-25T21:02:01.921Z,9.60
2018-09-25T21:04:35.670Z,9.50
2018-09-25T21:07:09.505Z,9.40
2018-09-25T21:09:43.384Z,9.40
2018-09-25T21:12:17.177Z,9.30
2018-09-25T21:14:50.916Z,9.30
2018-09-25T21:17:24.657Z,9.30
2018-09-25T21:19:58.434Z,9.30
2018-09-25T21:22:32.251Z,9.30
2018-09-25T21:25:05.929Z,9.30
2018-09-25T21:27:39.713Z,9.20
2018-09-25T21:30:13.460Z,9.20
2018-09-25T21:32:47.236Z,9.20
2018-09-25T21:35:20.931Z,9.10
2018-09-25T21:38:11.056Z,9.10
2018-09-25T21:40:44.980Z,9.10
2018-09-25T21:43:18.726Z,9.10
2018-09-25T21:45:54.324Z,9.00
2018-09-25T21:48:28.020Z,8.90
2018-09-25T21:51:03.586Z,8.90
2018-09-25T21:53:47.154Z,8.80
2018-09-25T21:56:24.924Z,8.70
2018-09-25T21:58:58.912Z,8.70
2018-09-25T22:01:32.647Z,8.70
2018-09-25T22:04:07.242Z,8.60
2018-09-25T22:06:40.837Z,8.50
2018-09-25T22:09:14.548Z,8.50
2018-09-25T22:11:48.200Z,8.50
2018-09-25T22:14:22.489Z,8.50
2018-09-25T22:16:56.237Z,8.50
2018-09-25T22:19:29.922Z,8.50
2018-09-25T22:22:03.761Z,8.50
2018-09-25T22:24:37.390Z,8.40
2018-09-25T22:27:11.107Z,8.30
2018-09-25T22:29:45.675Z,8.30
2018-09-25T22:32:20.033Z,8.20
2018-09-25T22:34:54.445Z,8.20
2018-09-25T22:37:28.216Z,8.20
2018-09-25T22:40:01.832Z,8.20
2018-09-25T22:42:35.751Z,8.10
2018-09-25T22:45:09.591Z,8.10
2018-09-25T22:47:43.185Z,8.10
2018-09-25T22:50:16.904Z,8.00
2018-09-25T22:52:50.712Z,8.00
2018-09-25T22:55:24.485Z,8.00
2018-09-25T22:57:58.180Z,8.00
2018-09-25T23:00:31.855Z,8.00
2018-09-25T23:03:06.450Z,8.00
2018-09-25T23:05:40.202Z,7.90
2018-09-25T23:08:13.849Z,7.90
2018-09-25T23:10:47.587Z,7.80
2018-09-25T23:13:22.044Z,7.80
2018-09-25T23:15:55.929Z,7.80
2018-09-25T23:18:29.688Z,7.70
2018-09-25T23:21:03.347Z,7.70
2018-09-25T23:23:37.005Z,7.70
2018-09-25T23:26:10.807Z,7.70
2018-09-25T23:28:44.524Z,7.60
2018-09-25T23:31:18.257Z,7.70
2018-09-25T23:33:51.913Z,7.70
2018-09-25T23:36:25.737Z,7.70
2018-09-25T23:39:02.364Z,7.70
2018-09-25T23:42:36.104Z,7.70
2018-09-25T23:45:09.995Z,7.70
2018-09-25T23:47:43.560Z,7.60
2018-09-25T23:50:19.055Z,7.60
2018-09-25T23:53:04.624Z,7.50
2018-09-25T23:55:37.462Z,7.40
2018-09-25T23:58:15.331Z,7.30
